sensor_id;sensor_type;location;lat;lon;timestamp;P1;durP1;ratioP1;P2;durP2;ratioP2
3133;SDS011;1577;49.912;10.924;2022-11-15T00:00:54;6.47;;;3.97;;
3133;SDS011;1577;49.912;10.924;2022-11-15T00:03:21;3.90;;;3.40;;
3133;SDS011;1577;49.912;10.924;2022-11-15T00:05:48;6.30;;;4.80;;
3133;SDS011;1577;49.912;10.924;2022-11-15T00:08:14;5.50;;;3.80;;
3133;SDS011;1577;49.912;10.924;2022-11-15T00:10:40;6.80;;;4.00;;
3133;SDS011;1577;49.912;10.924;2022-11-15T00:13:07;10.70;;;5.20;;
3133;SDS011;1577;49.912;10.924;2022-11-15T00:15:39;10.57;;;5.40;;
3133;SDS011;1577;49.912;10.924;2022-11-15T00:18:06;7.37;;;4.10;;
3133;SDS011;1577;49.912;10.924;2022-11-15T00:20:36;12.30;;;4.10;;
3133;SDS011;1577;49.912;10.924;2022-11-15T00:23:03;6.73;;;4.00;;
3133;SDS011;1577;49.912;10.924;2022-11-15T00:25:29;7.03;;;4.43;;
3133;SDS011;1577;49.912;10.924;2022-11-15T00:27:55;9.63;;;3.90;;
3133;SDS011;1577;49.912;10.924;2022-11-15T00:30:22;5.70;;;4.20;;
3133;SDS011;1577;49.912;10.924;2022-11-15T00:32:48;7.33;;;3.53;;
3133;SDS011;1577;49.912;10.924;2022-11-15T00:35:13;5.90;;;3.80;;
3133;SDS011;1577;49.912;10.924;2022-11-15T00:37:42;5.50;;;3.90;;
3133;SDS011;1577;49.912;10.924;2022-11-15T00:40:08;7.03;;;4.03;;
3133;SDS011;1577;49.912;10.924;2022-11-15T00:42:35;6.07;;;4.03;;
3133;SDS011;1577;49.912;10.924;2022-11-15T00:45:01;15.23;;;4.83;;
3133;SDS011;1577;49.912;10.924;2022-11-15T00:47:27;6.97;;;4.00;;
3133;SDS011;1577;49.912;10.924;2022-11-15T00:49:53;12.60;;;4.03;;
3133;SDS011;1577;49.912;10.924;2022-11-15T00:52:19;5.70;;;3.73;;
3133;SDS011;1577;49.912;10.924;2022-11-15T00:54:45;8.00;;;4.00;;
3133;SDS011;1577;49.912;10.924;2022-11-15T00:57:11;6.33;;;3.93;;
3133;SDS011;1577;49.912;10.924;2022-11-15T00:59:40;5.57;;;3.93;;
3133;SDS011;1577;49.912;10.924;2022-11-15T01:02:06;6.00;;;4.00;;
3133;SDS011;1577;49.912;10.924;2022-11-15T01:04:32;5.87;;;3.80;;
3133;SDS011;1577;49.912;10.924;2022-11-15T01:07:01;6.33;;;4.47;;
3133;SDS011;1577;49.912;10.924;2022-11-15T01:09:27;6.53;;;3.50;;
3133;SDS011;1577;49.912;10.924;2022-11-15T01:11:53;11.53;;;4.20;;
3133;SDS011;1577;49.912;10.924;2022-11-15T01:14:19;6.50;;;4.03;;
3133;SDS011;1577;49.912;10.924;2022-11-15T01:16:45;4.60;;;3.43;;
3133;SDS011;1577;49.912;10.924;2022-11-15T01:19:11;6.00;;;3.40;;
3133;SDS011;1577;49.912;10.924;2022-11-15T01:21:37;8.50;;;4.33;;
3133;SDS011;1577;49.912;10.924;2022-11-15T01:24:03;6.07;;;3.23;;
3133;SDS011;1577;49.912;10.924;2022-11-15T01:26:29;5.10;;;3.40;;
3133;SDS011;1577;49.912;10.924;2022-11-15T01:28:55;7.00;;;3.60;;
3133;SDS011;1577;49.912;10.924;2022-11-15T01:31:24;4.50;;;3.20;;
3133;SDS011;1577;49.912;10.924;2022-11-15T01:33:50;5.00;;;3.60;;
3133;SDS011;1577;49.912;10.924;2022-11-15T01:36:17;5.80;;;4.00;;
3133;SDS011;1577;49.912;10.924;2022-11-15T01:38:44;9.20;;;3.70;;
3133;SDS011;1577;49.912;10.924;2022-11-15T01:41:17;4.97;;;3.40;;
3133;SDS011;1577;49.912;10.924;2022-11-15T01:43:43;6.13;;;4.10;;
3133;SDS011;1577;49.912;10.924;2022-11-15T01:48:38;5.93;;;3.60;;
3133;SDS011;1577;49.912;10.924;2022-11-15T01:51:06;5.70;;;3.20;;
3133;SDS011;1577;49.912;10.924;2022-11-15T01:53:33;5.70;;;3.77;;
3133;SDS011;1577;49.912;10.924;2022-11-15T01:56:01;4.83;;;3.10;;
3133;SDS011;1577;49.912;10.924;2022-11-15T01:58:28;4.30;;;2.70;;
3133;SDS011;1577;49.912;10.924;2022-11-15T02:00:54;8.90;;;3.73;;
3133;SDS011;1577;49.912;10.924;2022-11-15T02:03:20;5.67;;;3.03;;
3133;SDS011;1577;49.912;10.924;2022-11-15T02:05:49;4.57;;;3.00;;
3133;SDS011;1577;49.912;10.924;2022-11-15T02:08:15;6.03;;;3.43;;
3133;SDS011;1577;49.912;10.924;2022-11-15T02:10:45;6.20;;;3.10;;
3133;SDS011;1577;49.912;10.924;2022-11-15T02:13:12;7.27;;;3.03;;
3133;SDS011;1577;49.912;10.924;2022-11-15T02:15:40;3.60;;;2.80;;
3133;SDS011;1577;49.912;10.924;2022-11-15T02:21:05;4.33;;;3.10;;
3133;SDS011;1577;49.912;10.924;2022-11-15T02:23:50;6.53;;;4.40;;
3133;SDS011;1577;49.912;10.924;2022-11-15T02:26:27;4.37;;;3.03;;
3133;SDS011;1577;49.912;10.924;2022-11-15T02:31:45;6.10;;;4.03;;
3133;SDS011;1577;49.912;10.924;2022-11-15T02:34:20;5.60;;;3.70;;
3133;SDS011;1577;49.912;10.924;2022-11-15T02:42:02;7.90;;;3.70;;
3133;SDS011;1577;49.912;10.924;2022-11-15T02:44:33;5.27;;;3.87;;
3133;SDS011;1577;49.912;10.924;2022-11-15T02:47:02;5.17;;;3.40;;
3133;SDS011;1577;49.912;10.924;2022-11-15T02:49:43;6.23;;;3.90;;
3133;SDS011;1577;49.912;10.924;2022-11-15T02:52:14;7.33;;;3.23;;
3133;SDS011;1577;49.912;10.924;2022-11-15T02:54:40;6.67;;;3.93;;
3133;SDS011;1577;49.912;10.924;2022-11-15T02:57:10;5.20;;;3.70;;
3133;SDS011;1577;49.912;10.924;2022-11-15T03:07:09;6.30;;;3.80;;
3133;SDS011;1577;49.912;10.924;2022-11-15T03:12:07;5.53;;;3.40;;
3133;SDS011;1577;49.912;10.924;2022-11-15T03:14:45;4.27;;;3.03;;
3133;SDS011;1577;49.912;10.924;2022-11-15T03:19:54;4.50;;;3.20;;
3133;SDS011;1577;49.912;10.924;2022-11-15T03:22:23;3.67;;;2.63;;
3133;SDS011;1577;49.912;10.924;2022-11-15T03:24:53;4.03;;;2.87;;
3133;SDS011;1577;49.912;10.924;2022-11-15T03:27:21;3.63;;;2.87;;
3133;SDS011;1577;49.912;10.924;2022-11-15T03:29:50;8.03;;;3.43;;
3133;SDS011;1577;49.912;10.924;2022-11-15T03:32:18;5.10;;;2.70;;
3133;SDS011;1577;49.912;10.924;2022-11-15T03:37:11;4.37;;;3.27;;
3133;SDS011;1577;49.912;10.924;2022-11-15T03:39:38;7.07;;;3.10;;
3133;SDS011;1577;49.912;10.924;2022-11-15T03:49:32;5.47;;;3.40;;
3133;SDS011;1577;49.912;10.924;2022-11-15T03:51:59;5.77;;;3.43;;
3133;SDS011;1577;49.912;10.924;2022-11-15T03:54:26;6.40;;;3.40;;
3133;SDS011;1577;49.912;10.924;2022-11-15T03:56:52;3.93;;;3.20;;
3133;SDS011;1577;49.912;10.924;2022-11-15T03:59:18;4.60;;;3.10;;
3133;SDS011;1577;49.912;10.924;2022-11-15T04:01:44;5.83;;;3.40;;
3133;SDS011;1577;49.912;10.924;2022-11-15T04:04:10;5.93;;;3.83;;
3133;SDS011;1577;49.912;10.924;2022-11-15T04:06:36;5.53;;;3.50;;
3133;SDS011;1577;49.912;10.924;2022-11-15T04:09:02;5.17;;;3.70;;
3133;SDS011;1577;49.912;10.924;2022-11-15T04:11:31;4.80;;;3.20;;
3133;SDS011;1577;49.912;10.924;2022-11-15T04:14:00;5.30;;;3.50;;
3133;SDS011;1577;49.912;10.924;2022-11-15T04:16:26;5.13;;;3.50;;
3133;SDS011;1577;49.912;10.924;2022-11-15T04:18:52;5.90;;;3.60;;
3133;SDS011;1577;49.912;10.924;2022-11-15T04:21:37;7.10;;;4.37;;
3133;SDS011;1577;49.912;10.924;2022-11-15T04:24:21;4.80;;;3.50;;
3133;SDS011;1577;49.912;10.924;2022-11-15T04:26:47;6.47;;;3.23;;
3133;SDS011;1577;49.912;10.924;2022-11-15T04:29:13;6.13;;;3.70;;
3133;SDS011;1577;49.912;10.924;2022-11-15T04:31:58;5.97;;;4.20;;
3133;SDS011;1577;49.912;10.924;2022-11-15T04:34:23;5.73;;;3.60;;
3133;SDS011;1577;49.912;10.924;2022-11-15T04:36:49;5.33;;;4.10;;
3133;SDS011;1577;49.912;10.924;2022-11-15T04:39:34;8.20;;;4.30;;
3133;SDS011;1577;49.912;10.924;2022-11-15T04:42:00;7.33;;;4.27;;
3133;SDS011;1577;49.912;10.924;2022-11-15T04:44:26;6.53;;;4.53;;
3133;SDS011;1577;49.912;10.924;2022-11-15T04:46:52;8.63;;;4.00;;
3133;SDS011;1577;49.912;10.924;2022-11-15T04:49:18;9.00;;;4.20;;
3133;SDS011;1577;49.912;10.924;2022-11-15T04:51:44;7.70;;;4.27;;
3133;SDS011;1577;49.912;10.924;2022-11-15T04:54:10;6.10;;;4.00;;
3133;SDS011;1577;49.912;10.924;2022-11-15T04:56:36;7.70;;;4.50;;
3133;SDS011;1577;49.912;10.924;2022-11-15T04:59:02;7.93;;;4.07;;
3133;SDS011;1577;49.912;10.924;2022-11-15T05:01:28;11.70;;;4.00;;
3133;SDS011;1577;49.912;10.924;2022-11-15T05:03:54;5.80;;;3.77;;
3133;SDS011;1577;49.912;10.924;2022-11-15T05:06:38;6.30;;;3.87;;
3133;SDS011;1577;49.912;10.924;2022-11-15T05:09:04;6.03;;;4.13;;
3133;SDS011;1577;49.912;10.924;2022-11-15T05:11:30;8.43;;;3.87;;
3133;SDS011;1577;49.912;10.924;2022-11-15T05:13:56;10.90;;;6.20;;
3133;SDS011;1577;49.912;10.924;2022-11-15T05:16:22;7.67;;;4.50;;
3133;SDS011;1577;49.912;10.924;2022-11-15T05:18:52;5.93;;;4.10;;
3133;SDS011;1577;49.912;10.924;2022-11-15T05:21:18;7.40;;;4.30;;
3133;SDS011;1577;49.912;10.924;2022-11-15T05:23:44;8.80;;;5.17;;
3133;SDS011;1577;49.912;10.924;2022-11-15T05:26:10;9.33;;;4.30;;
3133;SDS011;1577;49.912;10.924;2022-11-15T05:28:37;6.03;;;4.50;;
3133;SDS011;1577;49.912;10.924;2022-11-15T05:31:10;7.37;;;3.90;;
3133;SDS011;1577;49.912;10.924;2022-11-15T05:33:37;5.67;;;3.80;;
3133;SDS011;1577;49.912;10.924;2022-11-15T05:36:05;11.50;;;4.80;;
3133;SDS011;1577;49.912;10.924;2022-11-15T05:38:32;10.73;;;5.10;;
3133;SDS011;1577;49.912;10.924;2022-11-15T05:40:59;10.00;;;5.47;;
3133;SDS011;1577;49.912;10.924;2022-11-15T05:43:25;13.37;;;7.00;;
3133;SDS011;1577;49.912;10.924;2022-11-15T05:45:51;13.53;;;8.13;;
3133;SDS011;1577;49.912;10.924;2022-11-15T05:48:17;15.33;;;8.77;;
3133;SDS011;1577;49.912;10.924;2022-11-15T05:50:44;16.23;;;7.50;;
3133;SDS011;1577;49.912;10.924;2022-11-15T05:53:12;10.23;;;5.70;;
3133;SDS011;1577;49.912;10.924;2022-11-15T05:55:39;12.60;;;6.60;;
3133;SDS011;1577;49.912;10.924;2022-11-15T05:58:05;8.67;;;5.90;;
3133;SDS011;1577;49.912;10.924;2022-11-15T06:00:31;7.97;;;4.30;;
3133;SDS011;1577;49.912;10.924;2022-11-15T06:02:57;7.07;;;4.57;;
3133;SDS011;1577;49.912;10.924;2022-11-15T06:05:23;6.70;;;4.13;;
3133;SDS011;1577;49.912;10.924;2022-11-15T06:07:49;11.00;;;6.70;;
3133;SDS011;1577;49.912;10.924;2022-11-15T06:10:15;6.57;;;3.87;;
3133;SDS011;1577;49.912;10.924;2022-11-15T06:12:41;7.30;;;5.10;;
3133;SDS011;1577;49.912;10.924;2022-11-15T06:15:07;8.10;;;5.20;;
3133;SDS011;1577;49.912;10.924;2022-11-15T06:17:33;7.60;;;4.50;;
3133;SDS011;1577;49.912;10.924;2022-11-15T06:19:59;7.57;;;5.07;;
3133;SDS011;1577;49.912;10.924;2022-11-15T06:22:25;9.17;;;5.60;;
3133;SDS011;1577;49.912;10.924;2022-11-15T06:24:51;7.47;;;5.00;;
3133;SDS011;1577;49.912;10.924;2022-11-15T06:27:17;8.03;;;4.43;;
3133;SDS011;1577;49.912;10.924;2022-11-15T06:29:43;7.60;;;4.40;;
3133;SDS011;1577;49.912;10.924;2022-11-15T06:32:09;6.20;;;4.53;;
3133;SDS011;1577;49.912;10.924;2022-11-15T06:34:35;11.27;;;6.97;;
3133;SDS011;1577;49.912;10.924;2022-11-15T06:37:02;10.50;;;8.40;;
3133;SDS011;1577;49.912;10.924;2022-11-15T06:39:28;10.97;;;7.07;;
3133;SDS011;1577;49.912;10.924;2022-11-15T06:41:54;11.33;;;6.50;;
3133;SDS011;1577;49.912;10.924;2022-11-15T06:44:20;10.03;;;6.07;;
3133;SDS011;1577;49.912;10.924;2022-11-15T06:46:46;12.30;;;7.03;;
3133;SDS011;1577;49.912;10.924;2022-11-15T06:49:12;9.10;;;6.47;;
3133;SDS011;1577;49.912;10.924;2022-11-15T06:51:38;11.70;;;7.00;;
3133;SDS011;1577;49.912;10.924;2022-11-15T06:54:04;10.60;;;6.50;;
3133;SDS011;1577;49.912;10.924;2022-11-15T06:56:30;11.73;;;5.93;;
3133;SDS011;1577;49.912;10.924;2022-11-15T06:58:56;8.70;;;5.33;;
3133;SDS011;1577;49.912;10.924;2022-11-15T07:01:22;9.60;;;5.10;;
3133;SDS011;1577;49.912;10.924;2022-11-15T07:03:48;13.63;;;5.70;;
3133;SDS011;1577;49.912;10.924;2022-11-15T07:06:14;6.47;;;4.63;;
3133;SDS011;1577;49.912;10.924;2022-11-15T07:08:40;9.60;;;5.00;;
3133;SDS011;1577;49.912;10.924;2022-11-15T07:11:07;11.07;;;5.83;;
3133;SDS011;1577;49.912;10.924;2022-11-15T07:13:33;13.50;;;5.83;;
3133;SDS011;1577;49.912;10.924;2022-11-15T07:16:03;11.33;;;5.67;;
3133;SDS011;1577;49.912;10.924;2022-11-15T07:18:29;12.90;;;6.57;;
3133;SDS011;1577;49.912;10.924;2022-11-15T07:20:55;17.00;;;6.47;;
3133;SDS011;1577;49.912;10.924;2022-11-15T07:23:25;11.90;;;6.33;;
3133;SDS011;1577;49.912;10.924;2022-11-15T07:25:51;13.77;;;6.93;;
3133;SDS011;1577;49.912;10.924;2022-11-15T07:28:17;23.97;;;7.87;;
3133;SDS011;1577;49.912;10.924;2022-11-15T07:30:43;14.60;;;7.70;;
3133;SDS011;1577;49.912;10.924;2022-11-15T07:33:09;19.70;;;6.20;;
3133;SDS011;1577;49.912;10.924;2022-11-15T07:35:35;14.60;;;5.93;;
3133;SDS011;1577;49.912;10.924;2022-11-15T07:38:02;8.80;;;5.60;;
3133;SDS011;1577;49.912;10.924;2022-11-15T07:40:28;8.20;;;5.70;;
3133;SDS011;1577;49.912;10.924;2022-11-15T07:42:59;16.47;;;7.13;;
3133;SDS011;1577;49.912;10.924;2022-11-15T07:45:25;9.67;;;5.17;;
3133;SDS011;1577;49.912;10.924;2022-11-15T07:47:51;8.70;;;5.80;;
3133;SDS011;1577;49.912;10.924;2022-11-15T07:50:17;14.33;;;7.00;;
3133;SDS011;1577;49.912;10.924;2022-11-15T07:52:44;12.97;;;8.30;;
3133;SDS011;1577;49.912;10.924;2022-11-15T07:55:10;14.90;;;7.13;;
3133;SDS011;1577;49.912;10.924;2022-11-15T07:57:37;19.60;;;8.03;;
3133;SDS011;1577;49.912;10.924;2022-11-15T08:00:05;13.70;;;7.10;;
3133;SDS011;1577;49.912;10.924;2022-11-15T08:02:35;11.93;;;5.67;;
3133;SDS011;1577;49.912;10.924;2022-11-15T08:05:04;9.97;;;6.90;;
3133;SDS011;1577;49.912;10.924;2022-11-15T08:07:30;11.33;;;6.57;;
3133;SDS011;1577;49.912;10.924;2022-11-15T08:09:57;11.10;;;6.47;;
3133;SDS011;1577;49.912;10.924;2022-11-15T08:12:23;13.20;;;5.33;;
3133;SDS011;1577;49.912;10.924;2022-11-15T08:14:49;11.47;;;5.47;;
3133;SDS011;1577;49.912;10.924;2022-11-15T08:17:15;6.50;;;5.00;;
3133;SDS011;1577;49.912;10.924;2022-11-15T08:19:41;7.40;;;4.63;;
3133;SDS011;1577;49.912;10.924;2022-11-15T08:22:07;7.00;;;3.70;;
3133;SDS011;1577;49.912;10.924;2022-11-15T08:24:33;7.30;;;4.20;;
3133;SDS011;1577;49.912;10.924;2022-11-15T08:26:59;7.13;;;4.10;;
3133;SDS011;1577;49.912;10.924;2022-11-15T08:29:25;10.00;;;4.07;;
3133;SDS011;1577;49.912;10.924;2022-11-15T08:31:54;60.43;;;6.20;;
3133;SDS011;1577;49.912;10.924;2022-11-15T08:34:20;9.40;;;3.93;;
3133;SDS011;1577;49.912;10.924;2022-11-15T08:36:46;6.93;;;3.80;;
3133;SDS011;1577;49.912;10.924;2022-11-15T08:39:12;9.50;;;4.47;;
3133;SDS011;1577;49.912;10.924;2022-11-15T08:41:38;9.13;;;4.27;;
3133;SDS011;1577;49.912;10.924;2022-11-15T08:44:04;10.23;;;4.13;;
3133;SDS011;1577;49.912;10.924;2022-11-15T08:46:30;7.47;;;3.90;;
3133;SDS011;1577;49.912;10.924;2022-11-15T08:48:56;5.90;;;4.07;;
3133;SDS011;1577;49.912;10.924;2022-11-15T08:51:22;5.30;;;4.00;;
3133;SDS011;1577;49.912;10.924;2022-11-15T08:53:48;6.33;;;2.73;;
3133;SDS011;1577;49.912;10.924;2022-11-15T08:56:14;7.00;;;3.73;;
3133;SDS011;1577;49.912;10.924;2022-11-15T08:58:40;4.33;;;2.93;;
3133;SDS011;1577;49.912;10.924;2022-11-15T09:01:13;4.63;;;3.60;;
3133;SDS011;1577;49.912;10.924;2022-11-15T09:03:40;4.60;;;3.33;;
3133;SDS011;1577;49.912;10.924;2022-11-15T09:06:06;4.10;;;2.70;;
3133;SDS011;1577;49.912;10.924;2022-11-15T09:08:32;4.57;;;2.70;;
3133;SDS011;1577;49.912;10.924;2022-11-15T09:10:58;5.73;;;3.30;;
3133;SDS011;1577;49.912;10.924;2022-11-15T09:13:24;3.53;;;2.53;;
3133;SDS011;1577;49.912;10.924;2022-11-15T09:15:50;3.77;;;2.90;;
3133;SDS011;1577;49.912;10.924;2022-11-15T09:18:16;5.93;;;2.80;;
3133;SDS011;1577;49.912;10.924;2022-11-15T09:20:42;3.03;;;2.60;;
3133;SDS011;1577;49.912;10.924;2022-11-15T09:23:08;4.70;;;2.77;;
3133;SDS011;1577;49.912;10.924;2022-11-15T09:25:34;3.10;;;2.30;;
3133;SDS011;1577;49.912;10.924;2022-11-15T09:28:00;3.63;;;2.53;;
3133;SDS011;1577;49.912;10.924;2022-11-15T09:30:26;3.10;;;2.40;;
3133;SDS011;1577;49.912;10.924;2022-11-15T09:32:52;4.97;;;2.60;;
3133;SDS011;1577;49.912;10.924;2022-11-15T09:35:18;4.43;;;3.17;;
3133;SDS011;1577;49.912;10.924;2022-11-15T09:37:44;4.97;;;2.40;;
3133;SDS011;1577;49.912;10.924;2022-11-15T09:40:13;3.57;;;2.77;;
3133;SDS011;1577;49.912;10.924;2022-11-15T09:45:30;5.97;;;2.53;;
3133;SDS011;1577;49.912;10.924;2022-11-15T09:48:02;3.77;;;2.23;;
3133;SDS011;1577;49.912;10.924;2022-11-15T09:50:38;5.40;;;2.70;;
3133;SDS011;1577;49.912;10.924;2022-11-15T09:53:08;3.07;;;2.50;;
3133;SDS011;1577;49.912;10.924;2022-11-15T09:55:40;3.97;;;2.80;;
3133;SDS011;1577;49.912;10.924;2022-11-15T09:58:14;4.87;;;3.03;;
3133;SDS011;1577;49.912;10.924;2022-11-15T10:00:44;3.90;;;2.70;;
3133;SDS011;1577;49.912;10.924;2022-11-15T10:05:43;4.63;;;2.67;;
3133;SDS011;1577;49.912;10.924;2022-11-15T10:10:43;5.07;;;3.10;;
3133;SDS011;1577;49.912;10.924;2022-11-15T10:13:13;5.63;;;3.20;;
3133;SDS011;1577;49.912;10.924;2022-11-15T10:15:40;6.93;;;3.07;;
3133;SDS011;1577;49.912;10.924;2022-11-15T10:20:50;4.53;;;2.77;;
3133;SDS011;1577;49.912;10.924;2022-11-15T10:23:17;3.00;;;2.23;;
3133;SDS011;1577;49.912;10.924;2022-11-15T10:25:43;3.67;;;2.37;;
3133;SDS011;1577;49.912;10.924;2022-11-15T10:28:14;2.20;;;1.90;;
3133;SDS011;1577;49.912;10.924;2022-11-15T10:30:42;2.97;;;1.90;;
3133;SDS011;1577;49.912;10.924;2022-11-15T10:35:38;3.70;;;2.00;;
3133;SDS011;1577;49.912;10.924;2022-11-15T10:38:05;2.03;;;1.73;;
3133;SDS011;1577;49.912;10.924;2022-11-15T10:40:32;3.37;;;1.80;;
3133;SDS011;1577;49.912;10.924;2022-11-15T10:45:31;3.13;;;1.97;;
3133;SDS011;1577;49.912;10.924;2022-11-15T10:50:39;2.30;;;1.77;;
3133;SDS011;1577;49.912;10.924;2022-11-15T10:53:17;2.47;;;2.10;;
3133;SDS011;1577;49.912;10.924;2022-11-15T10:55:46;5.00;;;2.13;;
3133;SDS011;1577;49.912;10.924;2022-11-15T10:58:30;2.60;;;1.90;;
3133;SDS011;1577;49.912;10.924;2022-11-15T11:01:05;2.60;;;1.93;;
3133;SDS011;1577;49.912;10.924;2022-11-15T11:03:34;3.43;;;1.80;;
3133;SDS011;1577;49.912;10.924;2022-11-15T11:06:23;3.60;;;1.93;;
3133;SDS011;1577;49.912;10.924;2022-11-15T11:08:56;3.27;;;1.80;;
3133;SDS011;1577;49.912;10.924;2022-11-15T11:11:26;2.43;;;1.47;;
3133;SDS011;1577;49.912;10.924;2022-11-15T11:14:12;2.40;;;1.90;;
3133;SDS011;1577;49.912;10.924;2022-11-15T11:16:42;2.03;;;1.53;;
3133;SDS011;1577;49.912;10.924;2022-11-15T11:19:17;3.17;;;1.60;;
3133;SDS011;1577;49.912;10.924;2022-11-15T11:24:23;2.17;;;1.47;;
3133;SDS011;1577;49.912;10.924;2022-11-15T11:27:02;3.70;;;2.20;;
3133;SDS011;1577;49.912;10.924;2022-11-15T11:37:49;2.33;;;1.60;;
3133;SDS011;1577;49.912;10.924;2022-11-15T11:45:59;3.80;;;1.50;;
3133;SDS011;1577;49.912;10.924;2022-11-15T11:48:36;4.00;;;1.63;;
3133;SDS011;1577;49.912;10.924;2022-11-15T11:51:05;3.57;;;1.50;;
3133;SDS011;1577;49.912;10.924;2022-11-15T11:53:44;2.27;;;1.47;;
3133;SDS011;1577;49.912;10.924;2022-11-15T11:56:20;2.97;;;1.80;;
3133;SDS011;1577;49.912;10.924;2022-11-15T11:58:47;4.87;;;2.83;;
3133;SDS011;1577;49.912;10.924;2022-11-15T12:01:16;8.10;;;3.63;;
3133;SDS011;1577;49.912;10.924;2022-11-15T12:03:55;3.00;;;1.87;;
3133;SDS011;1577;49.912;10.924;2022-11-15T12:06:30;2.90;;;1.57;;
3133;SDS011;1577;49.912;10.924;2022-11-15T12:09:11;3.07;;;1.77;;
3133;SDS011;1577;49.912;10.924;2022-11-15T12:17:15;2.33;;;1.60;;
3133;SDS011;1577;49.912;10.924;2022-11-15T12:19:42;3.40;;;2.53;;
3133;SDS011;1577;49.912;10.924;2022-11-15T12:24:37;2.73;;;1.70;;
3133;SDS011;1577;49.912;10.924;2022-11-15T12:27:12;4.50;;;1.70;;
3133;SDS011;1577;49.912;10.924;2022-11-15T12:29:42;2.67;;;1.70;;
3133;SDS011;1577;49.912;10.924;2022-11-15T12:35:00;3.37;;;1.80;;
3133;SDS011;1577;49.912;10.924;2022-11-15T12:47:24;2.57;;;1.80;;
3133;SDS011;1577;49.912;10.924;2022-11-15T12:49:50;2.63;;;1.70;;
3133;SDS011;1577;49.912;10.924;2022-11-15T12:52:16;2.83;;;1.63;;
3133;SDS011;1577;49.912;10.924;2022-11-15T12:59:54;3.13;;;1.87;;
3133;SDS011;1577;49.912;10.924;2022-11-15T13:02:33;4.27;;;2.57;;
3133;SDS011;1577;49.912;10.924;2022-11-15T13:17:38;3.00;;;1.83;;
3133;SDS011;1577;49.912;10.924;2022-11-15T13:28:00;3.20;;;2.33;;
3133;SDS011;1577;49.912;10.924;2022-11-15T13:30:27;3.77;;;2.37;;
3133;SDS011;1577;49.912;10.924;2022-11-15T13:32:54;5.83;;;3.53;;
3133;SDS011;1577;49.912;10.924;2022-11-15T13:35:25;7.13;;;3.50;;
3133;SDS011;1577;49.912;10.924;2022-11-15T13:37:52;10.90;;;5.33;;
3133;SDS011;1577;49.912;10.924;2022-11-15T13:42:47;6.63;;;4.03;;
3133;SDS011;1577;49.912;10.924;2022-11-15T13:45:17;6.00;;;2.90;;
3133;SDS011;1577;49.912;10.924;2022-11-15T13:47:43;4.20;;;2.83;;
3133;SDS011;1577;49.912;10.924;2022-11-15T13:50:10;8.53;;;1.93;;
3133;SDS011;1577;49.912;10.924;2022-11-15T13:52:37;4.10;;;2.40;;
3133;SDS011;1577;49.912;10.924;2022-11-15T13:55:20;6.20;;;2.90;;
3133;SDS011;1577;49.912;10.924;2022-11-15T14:00:24;5.10;;;3.60;;
3133;SDS011;1577;49.912;10.924;2022-11-15T14:02:51;7.50;;;4.37;;
3133;SDS011;1577;49.912;10.924;2022-11-15T14:05:18;6.27;;;3.90;;
3133;SDS011;1577;49.912;10.924;2022-11-15T14:08:03;5.97;;;3.10;;
3133;SDS011;1577;49.912;10.924;2022-11-15T14:10:30;7.53;;;3.30;;
3133;SDS011;1577;49.912;10.924;2022-11-15T14:12:59;7.07;;;3.67;;
3133;SDS011;1577;49.912;10.924;2022-11-15T14:15:33;8.77;;;4.23;;
3133;SDS011;1577;49.912;10.924;2022-11-15T14:17:59;8.57;;;2.80;;
3133;SDS011;1577;49.912;10.924;2022-11-15T14:22:53;3.53;;;2.20;;
3133;SDS011;1577;49.912;10.924;2022-11-15T14:25:23;7.03;;;3.10;;
3133;SDS011;1577;49.912;10.924;2022-11-15T14:30:34;5.30;;;2.60;;
3133;SDS011;1577;49.912;10.924;2022-11-15T14:33:00;2.70;;;2.33;;
3133;SDS011;1577;49.912;10.924;2022-11-15T14:35:27;4.50;;;3.63;;
3133;SDS011;1577;49.912;10.924;2022-11-15T14:37:53;6.43;;;3.93;;
3133;SDS011;1577;49.912;10.924;2022-11-15T14:40:20;6.90;;;4.40;;
3133;SDS011;1577;49.912;10.924;2022-11-15T14:42:47;5.30;;;3.60;;
3133;SDS011;1577;49.912;10.924;2022-11-15T14:45:20;6.10;;;3.30;;
3133;SDS011;1577;49.912;10.924;2022-11-15T14:47:46;4.27;;;3.10;;
3133;SDS011;1577;49.912;10.924;2022-11-15T14:50:13;4.33;;;2.80;;
3133;SDS011;1577;49.912;10.924;2022-11-15T14:52:39;4.90;;;2.97;;
3133;SDS011;1577;49.912;10.924;2022-11-15T14:55:25;4.67;;;2.60;;
3133;SDS011;1577;49.912;10.924;2022-11-15T14:57:53;5.77;;;2.70;;
3133;SDS011;1577;49.912;10.924;2022-11-15T15:00:19;4.97;;;2.93;;
3133;SDS011;1577;49.912;10.924;2022-11-15T15:02:46;4.97;;;3.43;;
3133;SDS011;1577;49.912;10.924;2022-11-15T15:07:38;10.60;;;3.13;;
3133;SDS011;1577;49.912;10.924;2022-11-15T15:10:07;7.93;;;3.50;;
3133;SDS011;1577;49.912;10.924;2022-11-15T15:12:33;3.83;;;2.63;;
3133;SDS011;1577;49.912;10.924;2022-11-15T15:14:59;6.23;;;3.00;;
3133;SDS011;1577;49.912;10.924;2022-11-15T15:17:25;6.43;;;3.20;;
3133;SDS011;1577;49.912;10.924;2022-11-15T15:19:51;3.70;;;2.70;;
3133;SDS011;1577;49.912;10.924;2022-11-15T15:22:18;6.83;;;3.47;;
3133;SDS011;1577;49.912;10.924;2022-11-15T15:24:44;4.97;;;2.80;;
3133;SDS011;1577;49.912;10.924;2022-11-15T15:27:11;3.73;;;2.60;;
3133;SDS011;1577;49.912;10.924;2022-11-15T15:29:37;5.27;;;2.60;;
3133;SDS011;1577;49.912;10.924;2022-11-15T15:32:04;4.07;;;2.50;;
3133;SDS011;1577;49.912;10.924;2022-11-15T15:34:30;6.30;;;2.87;;
3133;SDS011;1577;49.912;10.924;2022-11-15T15:37:06;3.20;;;2.47;;
3133;SDS011;1577;49.912;10.924;2022-11-15T15:39:32;4.40;;;2.70;;
3133;SDS011;1577;49.912;10.924;2022-11-15T15:41:58;5.07;;;2.57;;
3133;SDS011;1577;49.912;10.924;2022-11-15T15:44:24;3.80;;;2.00;;
3133;SDS011;1577;49.912;10.924;2022-11-15T15:46:50;4.80;;;2.83;;
3133;SDS011;1577;49.912;10.924;2022-11-15T15:49:16;9.87;;;2.53;;
3133;SDS011;1577;49.912;10.924;2022-11-15T15:51:42;4.70;;;2.73;;
3133;SDS011;1577;49.912;10.924;2022-11-15T15:54:08;5.70;;;2.80;;
3133;SDS011;1577;49.912;10.924;2022-11-15T15:56:34;4.40;;;3.23;;
3133;SDS011;1577;49.912;10.924;2022-11-15T15:59:00;5.60;;;2.63;;
3133;SDS011;1577;49.912;10.924;2022-11-15T16:01:26;7.20;;;3.50;;
3133;SDS011;1577;49.912;10.924;2022-11-15T16:03:52;5.10;;;2.40;;
3133;SDS011;1577;49.912;10.924;2022-11-15T16:08:56;6.23;;;2.30;;
3133;SDS011;1577;49.912;10.924;2022-11-15T16:11:22;3.70;;;2.30;;
3133;SDS011;1577;49.912;10.924;2022-11-15T16:13:48;4.70;;;2.50;;
3133;SDS011;1577;49.912;10.924;2022-11-15T16:16:14;9.40;;;3.10;;
3133;SDS011;1577;49.912;10.924;2022-11-15T16:18:40;7.33;;;3.20;;
3133;SDS011;1577;49.912;10.924;2022-11-15T16:21:07;8.43;;;5.17;;
3133;SDS011;1577;49.912;10.924;2022-11-15T16:23:33;5.47;;;2.50;;
3133;SDS011;1577;49.912;10.924;2022-11-15T16:25:59;3.83;;;2.70;;
3133;SDS011;1577;49.912;10.924;2022-11-15T16:28:31;2.63;;;2.17;;
3133;SDS011;1577;49.912;10.924;2022-11-15T16:31:10;4.37;;;2.50;;
3133;SDS011;1577;49.912;10.924;2022-11-15T16:33:37;4.80;;;2.87;;
3133;SDS011;1577;49.912;10.924;2022-11-15T16:36:03;5.47;;;3.20;;
3133;SDS011;1577;49.912;10.924;2022-11-15T16:38:30;7.03;;;2.90;;
3133;SDS011;1577;49.912;10.924;2022-11-15T16:40:56;6.40;;;2.87;;
3133;SDS011;1577;49.912;10.924;2022-11-15T16:43:22;5.70;;;3.20;;
3133;SDS011;1577;49.912;10.924;2022-11-15T16:45:49;7.43;;;3.00;;
3133;SDS011;1577;49.912;10.924;2022-11-15T16:48:22;7.73;;;3.20;;
3133;SDS011;1577;49.912;10.924;2022-11-15T16:50:55;6.27;;;2.53;;
3133;SDS011;1577;49.912;10.924;2022-11-15T16:53:21;7.23;;;3.17;;
3133;SDS011;1577;49.912;10.924;2022-11-15T16:55:48;4.30;;;2.80;;
3133;SDS011;1577;49.912;10.924;2022-11-15T16:58:14;4.40;;;2.30;;
3133;SDS011;1577;49.912;10.924;2022-11-15T17:00:40;5.60;;;3.10;;
3133;SDS011;1577;49.912;10.924;2022-11-15T17:03:06;6.43;;;3.10;;
3133;SDS011;1577;49.912;10.924;2022-11-15T17:05:32;5.40;;;2.90;;
3133;SDS011;1577;49.912;10.924;2022-11-15T17:07:58;4.60;;;2.60;;
3133;SDS011;1577;49.912;10.924;2022-11-15T17:10:24;4.10;;;3.20;;
3133;SDS011;1577;49.912;10.924;2022-11-15T17:12:51;5.37;;;3.20;;
3133;SDS011;1577;49.912;10.924;2022-11-15T17:15:17;7.83;;;3.40;;
3133;SDS011;1577;49.912;10.924;2022-11-15T17:17:43;4.13;;;3.30;;